Time;durP1;ratioP1;P1;durP2;ratioP2;P2;SDS_P1;SDS_P2;PMS_P1;PMS_P2;Temp;Humidity;BMP_temperature;BMP_pressure;BME280_temperature;BME280_humidity;BME280_pressure;Samples;Min_cycle;Max_cycle;Signal;HPM_P1;HPM_P2
2022/04/06 00:02:16;;;;;;;;;;;9.50;99.90;;;7.99;100.00;100122.59;2566642;30;137390;-41
2022/04/06 00:04:43;;;;;;;;;;;9.50;99.90;;;8.06;100.00;100136.16;2569387;30;138247;-40
2022/04/06 00:07:11;;;;;;;;;;;9.50;99.90;;;8.02;100.00;100133.03;2569451;30;137516;-40
2022/04/06 00:09:39;;;;;;;;;;;9.60;99.90;;;8.04;100.00;100130.94;2570473;30;138278;-40
2022/04/06 00:12:07;;;;;;;;;;;9.60;99.90;;;8.02;100.00;100127.59;2570515;30;137128;-40
2022/04/06 00:14:36;;;;;;;;;;;9.50;99.90;;;8.02;100.00;100124.88;2568507;30;139289;-40
2022/04/06 00:17:05;;;;;;;;;;;9.60;99.90;;;8.01;100.00;100109.63;2569195;30;137491;-40
2022/04/06 00:19:34;;;;;;;;;;;9.50;99.90;;;8.04;100.00;100120.06;2571581;30;139025;-40
2022/04/06 00:22:03;;;;;;;;;;;9.50;99.90;;;8.05;100.00;100115.47;2570419;30;137188;-40
2022/04/06 00:24:31;;;;;;;;;;;9.60;99.90;;;8.04;100.00;100114.63;2567888;30;137137;-40
2022/04/06 00:26:58;;;;;;;;;;;9.60;99.90;;;8.05;100.00;100120.91;2569733;30;137139;-40
2022/04/06 00:29:26;;;;;;;;;;;9.60;99.90;;;8.05;100.00;100110.84;2570336;30;139126;-40
2022/04/06 00:31:53;;;;;;;;;;;9.50;99.90;;;8.04;100.00;100120.06;2567723;30;137638;-40
2022/04/06 00:35:28;;;;;;;;;;;9.60;99.90;;;8.03;100.00;100123.00;2570102;30;138492;-40
2022/04/06 00:37:08;;;;;;;;;;;9.60;99.90;;;8.04;100.00;100120.06;2571442;30;137997;-40
2022/04/06 00:39:36;;;;;;;;;;;9.60;99.90;;;8.03;100.00;100118.38;2569550;30;138289;-40
2022/04/06 00:42:04;;;;;;;;;;;9.50;99.90;;;8.05;100.00;100118.19;2570041;30;137296;-40
2022/04/06 00:44:34;;;;;;;;;;;9.50;99.90;;;8.02;100.00;100108.56;2569512;30;138354;-41
2022/04/06 00:47:04;;;;;;;;;;;9.50;99.90;;;8.02;100.00;100115.91;2568000;30;137437;-40
2022/04/06 00:49:33;;;;;;;;;;;9.50;99.90;;;8.01;100.00;100106.91;2568876;30;138348;-40
2022/04/06 00:52:03;;;;;;;;;;;9.60;99.90;;;8.06;100.00;100111.72;2569935;30;137016;-40
2022/04/06 00:54:32;;;;;;;;;;;9.60;99.90;;;8.03;100.00;100106.72;2570792;30;138206;-40
2022/04/06 00:57:00;;;;;;;;;;;9.50;99.90;;;8.00;100.00;100107.13;2570613;30;137914;-40
2022/04/06 00:59:29;;;;;;;;;;;9.50;99.90;;;8.00;100.00;100107.94;2569691;30;137146;-40
2022/04/06 01:01:58;;;;;;;;;;;9.50;99.90;;;7.99;100.00;100100.84;2567319;30;137251;-40
2022/04/06 01:04:26;;;;;;;;;;;9.50;99.90;;;7.96;100.00;100100.47;2569232;30;138256;-40
2022/04/06 01:06:54;;;;;;;;;;;9.50;99.90;;;7.94;100.00;100097.94;2568417;30;137709;-41
2022/04/06 01:09:21;;;;;;;;;;;9.50;99.90;;;7.93;100.00;100096.28;2570385;30;138197;-40
2022/04/06 01:11:51;;;;;;;;;;;9.50;99.90;;;7.90;100.00;100092.09;2566946;30;137276;-40
2022/04/06 01:14:19;;;;;;;;;;;9.50;99.90;;;7.95;100.00;100094.19;2570091;30;139344;-41
2022/04/06 01:16:58;;;;;;;;;;;9.50;99.90;;;7.96;100.00;100093.13;2569424;30;137837;-40
2022/04/06 01:19:38;;;;;;;;;;;9.50;99.90;;;7.93;100.00;100093.56;2568550;30;138944;-40
2022/04/06 01:22:10;;;;;;;;;;;9.50;99.90;;;7.90;100.00;100094.81;2567541;30;136684;-40
2022/04/06 01:24:39;;;;;;;;;;;9.40;99.90;;;7.94;100.00;100081.66;2569792;30;136688;-40
2022/04/06 01:27:07;;;;;;;;;;;9.50;99.90;;;7.98;100.00;100082.06;2566991;30;137347;-42
2022/04/06 01:29:35;;;;;;;;;;;9.50;99.90;;;7.95;100.00;100082.47;2567686;30;138419;-40
2022/04/06 01:32:11;;;;;;;;;;;9.50;99.90;;;7.91;100.00;100088.34;2569542;30;137097;-41
2022/04/06 01:36:41;;;;;;;;;;;9.50;99.90;;;7.91;100.00;100085.63;2566074;30;156073;-40
2022/04/06 01:39:09;;;;;;;;;;;9.50;99.90;;;7.92;100.00;100078.31;2569427;30;137132;-40
2022/04/06 01:41:37;;;;;;;;;;;9.50;99.90;;;7.96;100.00;100084.16;2568425;30;138528;-39
2022/04/06 01:44:06;;;;;;;;;;;9.50;99.90;;;7.90;100.00;100074.97;2568315;30;137311;-40
2022/04/06 01:46:33;;;;;;;;;;;9.50;99.90;;;7.95;100.00;100091.47;2568657;30;138366;-41
2022/04/06 01:54:32;;;;;;;;;;;9.50;99.90;;;7.94;100.00;100069.94;2567298;30;136983;-40
2022/04/06 01:56:59;;;;;;;;;;;9.40;99.90;;;7.93;100.00;100066.41;2568202;30;138534;-40
2022/04/06 01:59:28;;;;;;;;;;;9.50;99.90;;;7.89;100.00;100067.88;2568988;30;137955;-40
2022/04/06 02:01:55;;;;;;;;;;;9.40;99.90;;;7.89;100.00;100068.69;2568259;30;138432;-40
2022/04/06 02:04:23;;;;;;;;;;;9.40;99.90;;;7.88;100.00;100067.03;2568623;30;136693;-40
2022/04/06 02:06:51;;;;;;;;;;;9.40;99.90;;;7.87;100.00;100067.25;2568413;30;139017;-40
2022/04/06 02:09:18;;;;;;;;;;;9.40;99.90;;;7.84;100.00;100071.22;2568200;30;136678;-40
2022/04/06 02:11:46;;;;;;;;;;;9.40;99.90;;;7.79;100.00;100071.03;2568269;30;136852;-40
2022/04/06 02:14:14;;;;;;;;;;;9.30;99.90;;;7.79;100.00;100054.75;2566217;30;137410;-40
2022/04/06 02:16:42;;;;;;;;;;;9.30;99.90;;;7.82;100.00;100061.59;2568728;30;138207;-40
2022/04/06 02:19:10;;;;;;;;;;;9.40;99.90;;;7.82;100.00;100051.59;2568581;30;137657;-40
2022/04/06 02:21:37;;;;;;;;;;;9.40;99.90;;;7.80;100.00;100056.41;2566915;30;138350;-40
2022/04/06 02:24:05;;;;;;;;;;;9.40;99.90;;;7.82;100.00;100059.75;2568590;30;137021;-42
2022/04/06 02:26:32;;;;;;;;;;;9.40;99.90;;;7.80;100.00;100058.28;2569610;30;138340;-40
2022/04/06 02:29:00;;;;;;;;;;;9.30;99.90;;;7.83;100.00;100055.97;2566787;30;136764;-40
2022/04/06 02:31:28;;;;;;;;;;;9.30;99.90;;;7.75;100.00;100048.88;2567549;30;138160;-40
2022/04/06 02:33:55;;;;;;;;;;;9.30;99.90;;;7.83;100.00;100053.25;2568017;30;137198;-40
2022/04/06 02:36:23;;;;;;;;;;;9.30;99.90;;;7.88;100.00;100064.31;2565848;30;139066;-40
2022/04/06 02:38:50;;;;;;;;;;;9.40;99.90;;;7.90;100.00;100058.69;2568585;30;136811;-40
2022/04/06 02:41:18;;;;;;;;;;;9.40;99.90;;;7.88;100.00;100047.19;2568536;30;138273;-40
2022/04/06 02:43:45;;;;;;;;;;;9.40;99.90;;;7.94;100.00;100043.63;2566516;30;137995;-40
2022/04/06 02:46:13;;;;;;;;;;;9.40;99.90;;;7.90;100.00;100053.25;2569049;30;138823;-40
2022/04/06 02:48:41;;;;;;;;;;;9.40;99.90;;;7.88;100.00;100033.63;2569269;30;136953;-40
2022/04/06 02:51:08;;;;;;;;;;;9.50;99.90;;;7.95;100.00;100044.44;2568757;30;137104;-40
2022/04/06 02:53:36;;;;;;;;;;;9.50;99.90;;;7.87;100.00;100038.22;2566838;30;137567;-40
2022/04/06 02:56:03;;;;;;;;;;;9.40;99.90;;;7.88;100.00;100034.44;2568227;30;138458;-40
2022/04/06 02:58:31;;;;;;;;;;;9.40;99.90;;;7.88;100.00;100030.91;2567686;30;136948;-40
2022/04/06 03:00:58;;;;;;;;;;;9.40;99.90;;;7.87;100.00;100035.50;2568790;30;138275;-40
2022/04/06 03:03:26;;;;;;;;;;;9.40;99.90;;;7.88;100.00;100030.91;2566365;30;137306;-40
2022/04/06 03:05:53;;;;;;;;;;;9.40;99.90;;;7.86;100.00;100031.09;2568159;30;138999;-40
2022/04/06 03:08:21;;;;;;;;;;;9.40;99.90;;;7.88;100.00;100029.00;2568896;30;137272;-40
2022/04/06 03:10:48;;;;;;;;;;;9.40;99.90;;;7.89;100.00;100029.84;2567117;30;138395;-39
2022/04/06 03:13:16;;;;;;;;;;;9.40;99.90;;;7.82;100.00;100029.88;2569078;30;138133;-40
2022/04/06 03:15:43;;;;;;;;;;;9.40;99.90;;;7.77;100.00;100026.97;2568959;30;139294;-40
2022/04/06 03:18:11;;;;;;;;;;;9.40;99.90;;;7.86;100.00;100033.81;2567460;30;137490;-40
2022/04/06 03:20:38;;;;;;;;;;;9.40;99.90;;;7.84;100.00;100027.78;2568674;30;138137;-39
2022/04/06 03:23:05;;;;;;;;;;;9.40;99.90;;;7.85;100.00;100025.91;2568338;30;137727;-40
2022/04/06 03:25:33;;;;;;;;;;;9.40;99.90;;;7.85;100.00;100034.88;2566352;30;138945;-40
2022/04/06 03:28:01;;;;;;;;;;;9.40;99.90;;;7.86;100.00;100031.09;2569080;30;137231;-40
2022/04/06 03:30:28;;;;;;;;;;;9.40;99.90;;;7.83;100.00;100031.53;2568670;30;138241;-40
2022/04/06 03:32:55;;;;;;;;;;;9.40;99.90;;;7.83;100.00;100020.66;2567385;30;137357;-40
2022/04/06 03:35:23;;;;;;;;;;;9.30;99.90;;;7.83;100.00;100020.66;2568519;30;137672;-40
2022/04/06 03:37:51;;;;;;;;;;;9.40;99.90;;;7.84;100.00;100026.94;2569064;30;137411;-40
2022/04/06 03:40:19;;;;;;;;;;;9.40;99.90;;;7.84;100.00;100029.66;2568966;30;138386;-40
2022/04/06 03:42:47;;;;;;;;;;;9.40;99.90;;;7.80;100.00;100018.38;2568252;30;137065;-41
2022/04/06 03:45:14;;;;;;;;;;;9.30;99.90;;;7.77;100.00;100013.38;2568159;30;138979;-41
2022/04/06 03:47:44;;;;;;;;;;;9.30;99.90;;;7.75;100.00;100010.88;2568098;30;137227;-40
2022/04/06 03:50:12;;;;;;;;;;;9.30;99.90;;;7.72;100.00;100013.19;2569354;30;138409;-40
2022/04/06 03:52:39;;;;;;;;;;;9.30;99.90;;;7.66;100.00;100014.03;2568663;30;137218;-40
2022/04/06 03:55:08;;;;;;;;;;;9.20;99.90;;;7.68;100.00;100011.94;2567417;30;138300;-40
2022/04/06 03:57:36;;;;;;;;;;;9.20;99.90;;;7.69;100.00;100010.88;2568927;30;136952;-39
2022/04/06 04:00:06;;;;;;;;;;;9.20;99.90;;;7.61;100.00;100012.78;2568674;30;138291;-39
2022/04/06 04:02:34;;;;;;;;;;;9.20;99.90;;;7.57;100.00;100010.75;2568286;30;137820;-40
2022/04/06 04:05:03;;;;;;;;;;;9.10;99.90;;;7.54;100.00;100005.72;2567770;30;137647;-40
2022/04/06 04:07:33;;;;;;;;;;;9.10;99.90;;;7.52;100.00;100002.38;2567928;30;137125;-40
2022/04/06 04:10:01;;;;;;;;;;;9.10;99.90;;;7.47;100.00;99997.59;2568701;30;138314;-40
2022/04/06 04:12:29;;;;;;;;;;;9.00;99.90;;;7.40;100.00;100003.03;2567425;30;136763;-40
2022/04/06 04:14:56;;;;;;;;;;;9.00;99.90;;;7.36;100.00;100000.94;2567748;30;137372;-40
2022/04/06 04:17:24;;;;;;;;;;;8.90;99.90;;;7.31;100.00;99994.28;2568301;30;136810;-40
2022/04/06 04:19:51;;;;;;;;;;;8.90;99.90;;;7.30;100.00;100000.75;2569523;30;136723;-40
2022/04/06 04:22:18;;;;;;;;;;;8.90;99.90;;;7.28;100.00;100002.84;2568935;30;136956;-40
2022/04/06 04:24:46;;;;;;;;;;;8.90;99.90;;;7.31;100.00;100001.59;2567214;30;138438;-40
2022/04/06 04:27:13;;;;;;;;;;;8.90;99.90;;;7.27;100.00;99993.03;2568243;30;137861;-40
2022/04/06 04:29:41;;;;;;;;;;;8.80;99.90;;;7.22;100.00;99990.13;2568358;30;138310;-40
2022/04/06 04:32:10;;;;;;;;;;;8.80;99.90;;;7.32;100.00;99993.22;2566412;30;137987;-40
2022/04/06 04:34:37;;;;;;;;;;;8.80;99.90;;;7.39;100.00;99986.94;2567245;30;138523;-40
2022/04/06 04:37:05;;;;;;;;;;;8.90;99.90;;;7.39;100.00;99986.94;2569339;30;137437;-41
2022/04/06 04:39:32;;;;;;;;;;;8.90;99.90;;;7.40;100.00;99985.91;2568953;30;137900;-40
2022/04/06 04:41:59;;;;;;;;;;;8.90;99.90;;;7.44;100.00;99995.31;2567702;30;136798;-40
2022/04/06 04:44:27;;;;;;;;;;;9.00;99.90;;;7.48;100.00;99986.53;2568021;30;138186;-42
2022/04/06 04:46:54;;;;;;;;;;;9.00;99.90;;;7.53;100.00;99987.75;2568179;30;136747;-40
2022/04/06 04:49:22;;;;;;;;;;;9.00;99.90;;;7.55;100.00;99991.09;2566218;30;137289;-40
2022/04/06 04:51:49;;;;;;;;;;;9.00;99.90;;;7.56;100.00;99990.03;2568542;30;137033;-40
2022/04/06 04:54:17;;;;;;;;;;;9.10;99.90;;;7.57;100.00;99989.84;2567831;30;138478;-40
2022/04/06 04:56:44;;;;;;;;;;;9.10;99.90;;;7.54;100.00;99986.72;2567496;30;136864;-40
2022/04/06 04:59:11;;;;;;;;;;;9.10;99.90;;;7.54;98.64;99987.56;2569246;30;138201;-41
2022/04/06 05:01:39;;;;;;;;;;;9.10;99.90;;;7.59;98.58;99998.59;2568613;30;137177;-40
2022/04/06 05:04:06;;;;;;;;;;;9.10;99.90;;;7.66;98.20;99986.88;2568836;30;138481;-40
2022/04/06 05:06:36;;;;;;;;;;;9.20;99.90;;;7.63;97.42;99993.59;2568121;30;136983;-41
2022/04/06 05:09:04;;;;;;;;;;;9.20;99.90;;;7.57;99.46;99989.84;2567853;30;138997;-40
2022/04/06 05:11:31;;;;;;;;;;;9.10;99.90;;;7.55;100.00;99982.94;2567622;30;136728;-40
2022/04/06 05:13:58;;;;;;;;;;;9.10;99.90;;;7.56;100.00;99982.75;2568536;30;139213;-40
2022/04/06 05:16:26;;;;;;;;;;;9.10;99.90;;;7.56;100.00;99988.19;2567742;30;137255;-40
2022/04/06 05:18:54;;;;;;;;;;;9.10;99.90;;;7.60;99.70;99989.41;2567655;30;138194;-40
2022/04/06 05:21:22;;;;;;;;;;;9.10;99.90;;;7.63;100.00;99983.56;2569078;30;137221;-40
2022/04/06 05:23:50;;;;;;;;;;;9.10;99.90;;;7.65;100.00;99979.78;2569957;30;137006;-40
2022/04/06 05:26:17;;;;;;;;;;;9.10;99.90;;;7.73;100.00;99988.53;2567524;30;136811;-40
2022/04/06 05:28:44;;;;;;;;;;;9.20;99.90;;;7.71;100.00;99992.53;2568194;30;137267;-40
2022/04/06 05:31:12;;;;;;;;;;;9.20;99.90;;;7.71;100.00;99995.25;2568182;30;137849;-41
2022/04/06 05:33:40;;;;;;;;;;;9.20;99.90;;;7.73;100.00;99996.69;2568143;30;137281;-40
2022/04/06 05:36:07;;;;;;;;;;;9.30;99.90;;;7.72;100.00;99996.91;2569137;30;137069;-41
2022/04/06 05:38:35;;;;;;;;;;;9.20;99.90;;;7.73;100.00;99987.72;2567937;30;138220;-40
2022/04/06 05:41:02;;;;;;;;;;;9.20;99.90;;;7.77;100.00;99988.94;2567177;30;137229;-40
2022/04/06 05:43:30;;;;;;;;;;;9.30;99.90;;;7.75;100.00;99988.34;2567943;30;139136;-42
2022/04/06 05:45:57;;;;;;;;;;;9.30;99.90;;;7.75;100.00;99997.28;2568656;30;137304;-40
2022/04/06 05:48:24;;;;;;;;;;;9.30;99.90;;;7.79;100.00;100003.16;2569235;30;139077;-40
2022/04/06 05:50:52;;;;;;;;;;;9.30;99.90;;;7.76;100.00;99993.53;2565935;30;137819;-40
2022/04/06 05:53:19;;;;;;;;;;;9.30;99.90;;;7.78;100.00;99990.63;2569412;30;138343;-40
2022/04/06 05:55:47;;;;;;;;;;;9.30;99.90;;;7.86;100.00;99993.09;2567319;30;137426;-40
2022/04/06 05:58:14;;;;;;;;;;;9.30;99.90;;;7.88;99.39;99990.16;2568345;30;138081;-40
2022/04/06 06:00:42;;;;;;;;;;;9.40;99.90;;;7.92;99.34;99994.94;2568921;30;137022;-40
2022/04/06 06:03:09;;;;;;;;;;;9.40;99.90;;;7.90;99.86;99983.44;2568300;30;139344;-40
2022/04/06 06:05:37;;;;;;;;;;;9.40;99.90;;;7.88;99.57;99987.44;2568980;30;136771;-40
2022/04/06 06:08:12;;;;;;;;;;;9.40;99.90;;;7.86;99.67;99994.97;2569645;30;138384;-40
2022/04/06 06:10:39;;;;;;;;;;;9.40;99.90;;;7.87;98.79;99980.34;2569025;30;136708;-41
2022/04/06 06:13:07;;;;;;;;;;;9.40;99.90;;;7.89;98.03;99979.06;2568973;30;138429;-40
2022/04/06 06:15:34;;;;;;;;;;;9.40;99.90;;;7.87;98.74;99986.59;2569074;30;136931;-40
2022/04/06 06:18:02;;;;;;;;;;;9.40;99.90;;;7.88;98.94;99990.97;2569724;30;139183;-40
2022/04/06 06:20:29;;;;;;;;;;;9.40;99.90;;;7.90;98.68;99983.44;2568063;30;136646;-40
2022/04/06 06:22:56;;;;;;;;;;;9.40;99.90;;;7.98;97.37;99995.97;2567612;30;138457;-40
2022/04/06 06:25:24;;;;;;;;;;;9.50;99.90;;;7.91;97.51;99992.44;2568447;30;137144;-41
2022/04/06 06:27:51;;;;;;;;;;;9.40;99.90;;;7.89;97.62;99979.06;2569058;30;137420;-40
2022/04/06 06:30:19;;;;;;;;;;;9.40;99.90;;;7.90;96.96;99978.03;2567304;30;136547;-40
2022/04/06 06:32:46;;;;;;;;;;;9.40;99.90;;;7.95;98.09;99987.41;2568547;30;139112;-40
2022/04/06 06:35:14;;;;;;;;;;;9.40;99.90;;;7.98;97.81;99989.72;2569378;30;137278;-40
2022/04/06 06:37:49;;;;;;;;;;;9.50;99.90;;;7.91;97.57;99985.13;2568670;30;138038;-40
2022/04/06 06:40:18;;;;;;;;;;;9.40;99.90;;;7.98;97.77;99976.13;2569459;30;137471;-40
2022/04/06 06:42:46;;;;;;;;;;;9.50;99.90;;;7.91;97.59;99981.59;2569334;30;137348;-40
2022/04/06 06:45:14;;;;;;;;;;;9.50;99.90;;;7.96;98.21;99980.94;2568866;30;136763;-40
2022/04/06 06:47:42;;;;;;;;;;;9.50;99.90;;;7.95;98.58;99977.38;2568948;30;138391;-40
2022/04/06 06:50:11;;;;;;;;;;;9.50;99.90;;;7.89;98.59;99976.34;2567832;30;136582;-40
2022/04/06 06:52:39;;;;;;;;;;;9.50;99.90;;;7.94;99.64;99977.59;2567197;30;138561;-40
2022/04/06 06:55:12;;;;;;;;;;;9.50;99.90;;;7.99;98.81;99980.50;2569118;30;137034;-40
2022/04/06 06:57:40;;;;;;;;;;;9.50;99.90;;;8.01;97.77;99979.22;2569350;30;137137;-40
2022/04/06 07:00:11;;;;;;;;;;;9.50;99.90;;;8.02;98.33;99975.47;2568222;30;136868;-41
2022/04/06 07:02:41;;;;;;;;;;;9.50;99.90;;;8.02;98.04;99980.06;2567653;30;138386;-40
2022/04/06 07:05:09;;;;;;;;;;;9.50;99.90;;;8.03;98.60;99976.31;2568707;30;136888;-40
2022/04/06 07:07:50;;;;;;;;;;;9.50;99.90;;;7.97;98.77;99966.31;2569372;30;137211;-40
2022/04/06 07:10:19;;;;;;;;;;;9.50;99.90;;;7.99;98.71;99970.47;2569734;30;137078;-41
2022/04/06 07:12:47;;;;;;;;;;;9.50;99.90;;;7.97;99.34;99966.31;2568587;30;137261;-41
2022/04/06 07:15:14;;;;;;;;;;;9.50;99.90;;;7.99;98.64;99961.50;2568820;30;137129;-41
2022/04/06 07:17:42;;;;;;;;;;;9.50;99.90;;;8.03;98.37;99960.00;2569461;30;139104;-40
2022/04/06 07:20:10;;;;;;;;;;;9.50;99.90;;;8.06;98.40;99962.28;2566930;30;136875;-40
2022/04/06 07:22:37;;;;;;;;;;;9.50;99.90;;;8.10;98.04;99951.84;2569294;30;136772;-40
2022/04/06 07:25:05;;;;;;;;;;;9.60;99.90;;;8.14;98.26;99961.22;2569199;30;136755;-40
2022/04/06 07:27:35;;;;;;;;;;;9.60;99.90;;;8.17;97.45;99956.16;2568216;30;137439;-41
2022/04/06 07:30:07;;;;;;;;;;;9.60;99.90;;;8.16;97.21;99959.09;2569658;30;137112;-40
2022/04/06 07:32:35;;;;;;;;;;;9.70;99.90;;;8.17;96.16;99948.00;2567763;30;137722;-40
2022/04/06 07:35:04;;;;;;;;;;;9.70;99.90;;;8.12;97.04;99952.44;2576919;30;137213;-40
2022/04/06 07:37:43;;;;;;;;;;;9.70;99.90;;;8.12;97.44;99942.41;2570091;30;137305;-40
2022/04/06 07:40:13;;;;;;;;;;;9.60;99.90;;;8.12;97.91;99945.09;2571055;30;136934;-40
2022/04/06 07:42:42;;;;;;;;;;;9.60;99.90;;;8.14;98.98;99947.63;2568246;30;139089;-41
2022/04/06 07:45:13;;;;;;;;;;;9.60;99.90;;;8.15;97.72;99949.28;2567650;30;137081;-41
2022/04/06 07:47:41;;;;;;;;;;;9.70;99.90;;;8.13;98.78;99946.78;2570986;30;137267;-41
2022/04/06 07:50:10;;;;;;;;;;;9.60;99.90;;;8.08;99.22;99946.59;2572328;30;136919;-41
2022/04/06 07:52:37;;;;;;;;;;;9.60;99.90;;;8.13;98.52;99948.69;2569467;30;139282;-40
2022/04/06 07:55:07;;;;;;;;;;;9.60;99.90;;;8.13;99.13;99945.97;2569715;30;137258;-40
2022/04/06 07:57:35;;;;;;;;;;;9.60;99.90;;;8.17;97.22;99945.28;2570150;30;138268;-40
2022/04/06 08:00:12;;;;;;;;;;;9.60;99.90;;;8.23;98.18;99948.22;2568151;30;136774;-41
2022/04/06 08:02:40;;;;;;;;;;;9.70;99.90;;;8.33;96.39;99951.25;2570525;30;139283;-41
2022/04/06 08:05:08;;;;;;;;;;;9.80;99.90;;;8.38;95.50;99943.28;2571211;30;137327;-40
2022/04/06 08:07:39;;;;;;;;;;;9.80;99.90;;;8.44;95.67;99953.25;2570487;30;138146;-41
2022/04/06 08:10:09;;;;;;;;;;;9.90;99.90;;;8.48;94.37;99946.34;2570209;30;137768;-41
2022/04/06 08:12:36;;;;;;;;;;;9.90;99.90;;;8.53;95.00;99928.59;2569442;30;137392;-41
2022/04/06 08:15:04;;;;;;;;;;;10.00;99.90;;;8.53;92.86;99940.28;2568777;30;137082;-41
2022/04/06 08:17:40;;;;;;;;;;;10.00;99.90;;;8.60;92.53;99926.63;2567754;30;138666;-41
2022/04/06 08:20:09;;;;;;;;;;;10.00;99.90;;;8.67;93.24;99934.75;2570125;30;137524;-41
2022/04/06 08:22:37;;;;;;;;;;;10.10;99.90;;;8.69;91.67;99933.44;2568807;30;138410;-41
2022/04/06 08:25:05;;;;;;;;;;;10.10;99.90;;;8.67;90.52;99946.44;2569792;30;137063;-41
2022/04/06 08:27:53;;;;;;;;;;;10.20;99.90;;;8.67;91.64;99930.13;2569705;30;138120;-41
2022/04/06 08:30:22;;;;;;;;;;;10.20;99.90;;;8.69;90.36;99947.06;2570284;30;137996;-40
2022/04/06 08:32:50;;;;;;;;;;;10.20;99.90;;;8.76;91.71;99936.97;2570330;30;138310;-41
2022/04/06 08:35:18;;;;;;;;;;;10.20;99.90;;;8.85;91.04;99933.97;2569368;30;136924;-41
2022/04/06 08:37:46;;;;;;;;;;;10.30;99.90;;;8.86;87.63;99930.19;2571450;30;138330;-41
2022/04/06 08:40:13;;;;;;;;;;;10.30;99.90;;;8.93;91.26;99928.22;2570608;30;137193;-41
2022/04/06 08:42:41;;;;;;;;;;;10.30;99.90;;;9.06;88.70;99925.41;2569343;30;138301;-41
2022/04/06 08:45:09;;;;;;;;;;;10.40;99.90;;;9.19;87.19;99919.00;2570375;30;137286;-40
2022/04/06 08:47:36;;;;;;;;;;;10.60;99.90;;;9.28;83.55;99916.81;2569447;30;137222;-40
2022/04/06 08:50:05;;;;;;;;;;;10.70;99.90;;;9.37;85.65;99908.31;2570170;30;137030;-41
2022/04/06 08:52:34;;;;;;;;;;;10.70;99.90;;;9.42;82.81;99911.19;2570452;30;137148;-41
2022/04/06 08:55:21;;;;;;;;;;;10.80;99.90;;;9.45;82.87;99908.88;2568897;30;137085;-40
2022/04/06 08:57:49;;;;;;;;;;;10.90;99.90;;;9.46;81.44;99907.81;2569405;30;137379;-40
2022/04/06 09:00:18;;;;;;;;;;;10.90;99.90;;;9.51;83.01;99904.38;2570163;30;136973;-41
2022/04/06 09:02:50;;;;;;;;;;;11.00;99.90;;;9.61;82.98;99912.84;2567677;30;138464;-41
2022/04/06 09:05:21;;;;;;;;;;;11.00;99.90;;;9.64;81.14;99908.81;2569410;30;138857;-41
2022/04/06 09:07:52;;;;;;;;;;;11.10;99.90;;;9.68;81.79;99917.38;2569189;30;139098;-41
2022/04/06 09:10:39;;;;;;;;;;;11.10;99.90;;;9.77;81.02;99913.28;2568909;30;137193;-41
2022/04/06 09:13:13;;;;;;;;;;;11.20;99.90;;;9.87;81.46;99918.19;2571923;30;136957;-41
2022/04/06 09:15:41;;;;;;;;;;;11.20;99.90;;;9.89;81.03;99911.44;2567701;30;137022;-41
2022/04/06 09:18:08;;;;;;;;;;;11.30;99.90;;;9.95;80.84;99911.59;2566915;30;138431;-40
2022/04/06 09:20:36;;;;;;;;;;;11.30;99.90;;;9.98;80.64;99916.56;2569968;30;137060;-41
2022/04/06 09:23:05;;;;;;;;;;;11.40;99.90;;;9.91;79.76;99914.78;2569815;30;138232;-41
2022/04/06 09:25:37;;;;;;;;;;;11.40;99.90;;;9.97;79.99;99929.38;2570993;30;137067;-42
2022/04/06 09:28:11;;;;;;;;;;;11.40;99.90;;;9.93;78.31;99906.34;2569175;30;137222;-41
2022/04/06 09:30:41;;;;;;;;;;;11.40;99.90;;;9.98;80.16;99916.56;2568662;30;136736;-41
2022/04/06 09:33:18;;;;;;;;;;;11.40;99.90;;;9.97;77.30;99914.91;2570593;30;138661;-40
2022/04/06 09:35:47;;;;;;;;;;;11.40;99.90;;;9.93;79.64;99909.06;2568843;30;136831;-41
2022/04/06 09:38:27;;;;;;;;;;;11.40;99.90;;;9.91;78.96;99906.59;2568605;30;138390;-41
2022/04/06 09:41:07;;;;;;;;;;;11.40;99.90;;;9.87;80.01;99908.13;2570027;30;137048;-41
2022/04/06 09:43:35;;;;;;;;;;;11.40;99.90;;;9.85;80.10;99909.41;2571148;30;138325;-40
2022/04/06 09:49:18;;;;;;;;;;;11.30;99.90;;;9.67;79.59;99913.81;2567016;30;138190;-42
2022/04/06 09:51:50;;;;;;;;;;;11.20;99.90;;;9.64;79.23;99912.41;2569991;30;137315;-41
2022/04/06 09:54:19;;;;;;;;;;;11.10;99.90;;;9.61;79.67;99910.13;2569608;30;138143;-41
2022/04/06 09:56:47;;;;;;;;;;;11.10;99.90;;;9.56;78.69;99912.72;2569644;30;138043;-41
2022/04/06 09:59:15;;;;;;;;;;;11.00;99.90;;;9.61;80.83;99910.13;2570160;30;139053;-41
2022/04/06 10:01:48;;;;;;;;;;;11.00;99.90;;;9.65;79.63;99913.22;2569511;30;137203;-41
2022/04/06 10:04:24;;;;;;;;;;;11.10;99.90;;;9.65;79.20;99899.59;2569608;30;138310;-42
2022/04/06 10:06:52;;;;;;;;;;;11.10;99.90;;;9.57;79.41;99913.53;2569698;30;136715;-40
2022/04/06 10:09:20;;;;;;;;;;;11.00;99.90;;;9.55;80.25;99900.16;2567798;30;139385;-40
2022/04/06 10:11:51;;;;;;;;;;;11.00;99.90;;;9.57;79.26;99913.53;2566885;30;137275;-41
2022/04/06 10:14:19;;;;;;;;;;;11.00;99.90;;;9.50;79.02;99900.00;2567815;30;137289;-42
2022/04/06 10:16:47;;;;;;;;;;;11.00;99.90;;;9.51;81.07;99909.81;2566906;30;136650;-40
2022/04/06 10:19:20;;;;;;;;;;;11.00;99.90;;;9.59;80.10;99898.63;2570476;30;136585;-41
2022/04/06 10:22:04;;;;;;;;;;;11.00;99.90;;;9.67;80.21;99892.03;2570020;30;137237;-40
2022/04/06 10:24:47;;;;;;;;;;;11.10;99.90;;;9.64;80.36;99893.34;2570841;30;138335;-40
2022/04/06 10:27:34;;;;;;;;;;;11.10;99.90;;;9.56;79.35;99896.38;2568652;30;138006;-40
2022/04/06 10:30:12;;;;;;;;;;;11.10;99.90;;;9.61;81.39;99895.66;2569145;30;138448;-41
2022/04/06 10:32:42;;;;;;;;;;;11.10;99.90;;;9.63;78.88;99885.38;2568966;30;137735;-41
2022/04/06 10:35:28;;;;;;;;;;;11.10;99.90;;;9.75;81.01;99878.09;2567216;30;136896;-41
2022/04/06 10:37:58;;;;;;;;;;;11.20;99.90;;;9.82;80.05;99875.31;2570776;30;136990;-40
2022/04/06 10:40:31;;;;;;;;;;;11.20;99.90;;;9.89;82.21;99876.03;2567864;30;138924;-40
2022/04/06 10:42:58;;;;;;;;;;;11.30;99.90;;;9.98;81.21;99875.69;2570293;30;136634;-41
2022/04/06 10:45:29;;;;;;;;;;;11.40;99.90;;;10.07;81.56;99885.19;2569917;30;137549;-41
2022/04/06 10:48:16;;;;;;;;;;;11.40;99.90;;;10.04;79.99;99864.72;2569985;30;138900;-40
2022/04/06 10:50:48;;;;;;;;;;;11.50;99.90;;;10.11;80.46;99864.63;2569147;30;139555;-41
2022/04/06 10:53:18;;;;;;;;;;;11.50;99.90;;;10.20;79.59;99862.34;2570540;30;137149;-41
2022/04/06 10:56:17;;;;;;;;;;;11.60;99.90;;;10.32;81.69;99870.56;2568312;30;138328;-41
2022/04/06 10:58:56;;;;;;;;;;;11.70;99.90;;;10.28;78.90;99866.66;2566115;30;138188;-41
2022/04/06 11:01:26;;;;;;;;;;;11.70;99.90;;;10.20;79.39;99857.75;2569657;30;138959;-41
2022/04/06 11:03:58;;;;;;;;;;;11.70;99.90;;;10.27;82.87;99860.38;2570533;30;136876;-40
2022/04/06 11:06:43;;;;;;;;;;;11.70;99.90;;;10.33;79.81;99851.25;2572034;30;138324;-40
2022/04/06 11:10:15;;;;;;;;;;;11.70;99.90;;;10.30;78.80;99857.19;2570338;30;137061;-40
2022/04/06 11:12:28;;;;;;;;;;;11.70;99.90;;;10.34;80.98;99852.06;2570482;30;139102;-40
2022/04/06 11:14:58;;;;;;;;;;;11.80;99.90;;;10.37;80.09;99846.19;2571812;30;137441;-41
2022/04/06 11:17:34;;;;;;;;;;;11.80;99.90;;;10.31;78.42;99861.56;2570375;30;138638;-41
2022/04/06 11:20:03;;;;;;;;;;;11.80;99.90;;;10.30;79.21;99854.47;2568896;30;136933;-41
2022/04/06 11:22:32;;;;;;;;;;;11.70;99.90;;;10.18;79.91;99861.75;2570600;30;138215;-40
2022/04/06 11:25:00;;;;;;;;;;;11.70;99.90;;;10.11;81.95;99851.00;2571483;30;136670;-40
2022/04/06 11:27:35;;;;;;;;;;;11.60;99.90;;;10.07;81.62;99853.34;2570493;30;138478;-41
2022/04/06 11:30:13;;;;;;;;;;;11.60;99.90;;;10.08;81.02;99859.63;2570437;30;137277;-40
2022/04/06 11:32:45;;;;;;;;;;;11.60;99.90;;;10.16;82.30;99858.44;2570457;30;138281;-41
2022/04/06 11:35:14;;;;;;;;;;;11.60;99.90;;;10.06;81.19;99859.00;2569531;30;137400;-40
2022/04/06 11:37:43;;;;;;;;;;;11.60;99.90;;;10.01;82.44;99848.81;2570410;30;137331;-40